Garrison, ND

3:15 AM CDT on October 01, 2014 (GMT -0500)
Minot Air Force Base | Change Station
CLOSE
Current Station
Airport
Location: Minot AFB,
Elevation: 1667 ft
Nearby Weather Stations

Elev 1667 ft 48.42 °N, 101.36 °W | Updated 17 minutes ago

Overcast
Overcast
51 °F
Feels Like 51 °F
N
9
Wind Variable Wind from WNW

Today
High -- | Low -- °F
--% Chance of Precip.
Yesterday
High -- | Low -- °F
Precip. -- in
7:44 AM 7:24 PM
Waxing Crescent, 45% visible
Pressure 29.44 in
Visibility 10.0 miles
Clouds Mostly Cloudy 400 ft
Overcast 1000 ft
Dew Point 51 °F
Humidity 100%
Rainfall 0.02 in
Snow Depth Not available.
UV 0 out of 12
Pollen .40 out of 12
Air Quality Not available.
Flu Activity Not available.
METAR KMIB 010758Z AUTO 29008KT 10SM BKN004 OVC010 11/11 A2941 RMK AO2 RAE0706DZB0706E0746 BKN V OVC SLP968 P0001 T01050105 CHINO RWY29 $

More Conditions Fewer Conditions

Pressure 29.44 in
Visibility 10.0 miles
Clouds Mostly Cloudy 400 ft
Overcast 1000 ft
Dew Point 51 °F
Humidity 100%
Rainfall 0.02 in
Snow Depth Not available.
UV 0 out of 12
Pollen .40 out of 12
Air Quality Not available.
Flu Activity Not available.
METAR KMIB 010758Z AUTO 29008KT 10SM BKN004 OVC010 11/11 A2941 RMK AO2 RAE0706DZB0706E0746 BKN V OVC SLP968 P0001 T01050105 CHINO RWY29 $

More Conditions Fewer Conditions

10-Day Weather Forecast

Almanac

Astronomy

Oct. 01, 2014 Rise Set
Actual Time 7:44 AM CDT 7:24 PM CDT
Civil Twilight 7:13 AM CDT 7:55 PM CDT
Nautical Twilight 6:38 AM CDT 8:31 PM CDT
Astronomical Twilight 6:01 AM CDT 9:07 PM CDT
Moon 3:05 PM CDT No Moon Set
Length of Visible Light 12h 41m
Length of Day
11h 40m
Tomorrow will be 3m 25s shorter.
Waxing Crescent, 45% of the Moon is Illuminated
Today
Waxing Crescent
Oct 1
First Quarter
Oct 8
Full
Oct 15
Last Quarter
Oct 23
New

Today's Extremes

State Highs State Lows

Community

WunderPhotos

Upload Photos

1,757,902 photos uploaded!

Nearby

Snow Depth

Station Depth Elevation
No new snow has been reported.

Earthquake Activity

City Distance Mag. Time & Date
No recent earthquake activity has been reported nearby.
Minimum magnitude displayed is 2.5.

Coastal Water Temperatures

Place Temperature
No Stations Reporting

Nearby Weather Stations